createdAt,value
2023-04-04T00:01:30.076Z,2.10
2023-04-04T00:06:34.251Z,2.10
2023-04-04T00:11:37.101Z,2.28
2023-04-04T00:16:40.469Z,2.08
2023-04-04T00:21:44.790Z,1.92
2023-04-04T00:26:47.537Z,2.13
2023-04-04T00:31:50.366Z,1.95
2023-04-04T00:36:54.690Z,1.92
2023-04-04T00:41:58.361Z,2.75
2023-04-04T00:47:01.315Z,2.25
2023-04-04T00:52:07.758Z,2.17
2023-04-04T00:57:10.747Z,2.65
2023-04-04T01:02:13.719Z,2.78
2023-04-04T01:07:17.981Z,2.78
2023-04-04T01:12:21.008Z,2.97
2023-04-04T01:17:25.084Z,3.15
2023-04-04T01:22:31.313Z,2.63
2023-04-04T01:27:35.980Z,2.30
2023-04-04T01:32:51.622Z,2.53
2023-04-04T01:38:06.694Z,3.55
2023-04-04T01:43:11.060Z,2.70
2023-04-04T01:48:17.069Z,2.40
2023-04-04T01:53:24.153Z,3.10
2023-04-04T01:58:28.403Z,2.80
2023-04-04T02:03:31.578Z,2.92
2023-04-04T02:08:34.629Z,2.85
2023-04-04T02:13:41.403Z,2.80
2023-04-04T02:18:45.104Z,3.13
2023-04-04T02:23:47.955Z,3.10
2023-04-04T02:28:52.124Z,3.35
2023-04-04T02:33:54.947Z,3.03
2023-04-04T02:38:58.158Z,2.95
2023-04-04T02:44:04.046Z,2.95
2023-04-04T02:49:08.210Z,3.03
2023-04-04T02:54:12.753Z,3.17
2023-04-04T02:59:21.198Z,2.80
2023-04-04T03:04:24.034Z,2.70
2023-04-04T03:09:26.860Z,2.92
2023-04-04T03:14:31.078Z,2.60
2023-04-04T03:19:34.569Z,3.38
2023-04-04T03:31:27.425Z,2.83
2023-04-04T03:36:30.376Z,2.85
2023-04-04T03:41:33.093Z,2.80
2023-04-04T03:46:37.189Z,3.40
2023-04-04T03:51:40.176Z,3.35
2023-04-04T03:56:43.083Z,2.53
2023-04-04T04:01:47.216Z,2.65
2023-04-04T04:06:50.003Z,2.88
2023-04-04T04:11:52.871Z,3.00
2023-04-04T04:16:56.974Z,2.80
2023-04-04T04:21:59.871Z,2.92
2023-04-04T04:27:04.049Z,3.50
2023-04-04T04:32:08.781Z,3.55
2023-04-04T04:37:17.756Z,3.60
2023-04-04T04:42:24.551Z,3.50
2023-04-04T04:47:33.708Z,4.00
2023-04-04T04:52:40.740Z,3.22
2023-04-04T04:57:43.606Z,2.97
2023-04-04T05:02:56.027Z,3.50
2023-04-04T05:08:08.117Z,3.20
2023-04-04T05:13:15.060Z,3.90
2023-04-04T05:18:23.079Z,3.88
2023-04-04T05:23:26.375Z,4.45
2023-04-04T05:28:29.728Z,4.00
2023-04-04T05:33:37.814Z,4.05
2023-04-04T05:38:48.038Z,4.50
2023-04-04T05:43:54.537Z,3.85
2023-04-04T05:49:01.397Z,4.07
2023-04-04T05:54:07.413Z,3.97
2023-04-04T05:59:11.555Z,4.43
2023-04-04T06:04:27.852Z,4.50
2023-04-04T06:09:33.096Z,6.90
2023-04-04T06:14:36.408Z,7.68
2023-04-04T06:19:42.893Z,7.78
2023-04-04T06:24:45.691Z,6.00
2023-04-04T06:29:49.407Z,5.38
2023-04-04T06:34:57.029Z,5.28
2023-04-04T06:40:14.606Z,4.80
2023-04-04T06:45:19.154Z,5.65
2023-04-04T06:50:23.645Z,4.80
2023-04-04T06:55:28.422Z,5.75
2023-04-04T07:00:31.563Z,5.10
2023-04-04T07:05:39.375Z,5.70
2023-04-04T07:10:42.629Z,4.70
2023-04-04T07:15:48.817Z,3.28
2023-04-04T07:20:53.004Z,3.90
2023-04-04T07:25:55.934Z,3.22
2023-04-04T07:31:00.781Z,3.35
2023-04-04T07:36:05.746Z,3.47
2023-04-04T07:41:11.709Z,3.40
2023-04-04T07:46:14.537Z,2.85
2023-04-04T07:51:20.741Z,3.53
2023-04-04T07:56:23.561Z,3.30
2023-04-04T08:01:26.978Z,3.08
2023-04-04T08:06:31.102Z,2.92
2023-04-04T08:11:33.911Z,2.85
2023-04-04T08:16:36.708Z,2.95
2023-04-04T08:21:40.848Z,3.60
2023-04-04T08:26:47.009Z,3.40
2023-04-04T08:31:54.599Z,2.75
2023-04-04T08:36:59.955Z,2.13
2023-04-04T08:42:05.617Z,2.72
2023-04-04T08:47:10.690Z,2.05
2023-04-04T08:52:19.174Z,1.88
2023-04-04T08:57:22.244Z,1.70
2023-04-04T09:02:30.521Z,2.25
2023-04-04T09:07:37.172Z,2.10
2023-04-04T09:12:45.475Z,2.63
2023-04-04T09:17:49.028Z,2.10
2023-04-04T09:22:53.165Z,2.60
2023-04-04T09:27:57.974Z,2.40
2023-04-04T09:33:06.589Z,2.17
2023-04-04T09:38:11.002Z,2.05
2023-04-04T09:43:14.573Z,1.98
2023-04-04T09:48:27.239Z,2.85
2023-04-04T09:58:36.276Z,2.30
2023-04-04T10:03:39.984Z,2.40
2023-04-04T10:08:45.153Z,2.55
2023-04-04T10:13:47.938Z,1.92
2023-04-04T10:18:51.438Z,2.10
2023-04-04T10:23:57.391Z,1.35
2023-04-04T10:29:00.594Z,1.90
2023-04-04T10:34:12.668Z,1.55
2023-04-04T10:39:25.032Z,2.22
2023-04-04T10:44:31.795Z,1.67
2023-04-04T10:49:36.186Z,1.55
2023-04-04T10:54:41.195Z,1.42
2023-04-04T10:59:57.981Z,2.08
2023-04-04T11:05:11.687Z,1.70
2023-04-04T11:10:22.109Z,1.60
2023-04-04T11:15:26.471Z,1.90
2023-04-04T11:20:34.484Z,1.75
2023-04-04T11:25:41.129Z,1.77
2023-04-04T11:30:48.766Z,1.70
2023-04-04T11:35:51.903Z,1.55
2023-04-04T11:40:57.026Z,1.90
2023-04-04T11:46:08.838Z,1.83
2023-04-04T11:51:12.798Z,1.83
2023-04-04T11:56:18.007Z,2.03
2023-04-04T12:01:21.681Z,2.03
2023-04-04T12:06:25.441Z,2.20
2023-04-04T12:11:31.066Z,1.98
2023-04-04T12:16:33.857Z,2.05
2023-04-04T12:21:36.646Z,1.95
2023-04-04T12:26:43.074Z,1.92
2023-04-04T12:31:47.507Z,2.08
2023-04-04T12:36:54.085Z,2.13
2023-04-04T12:41:59.630Z,2.17
2023-04-04T12:47:04.900Z,2.03
2023-04-04T12:52:09.156Z,2.08
2023-04-04T12:57:18.385Z,2.60
2023-04-04T13:02:23.615Z,2.22
2023-04-04T13:07:28.453Z,2.40
2023-04-04T13:12:58.336Z,2.03
2023-04-04T13:18:15.384Z,2.67
2023-04-04T13:23:18.400Z,2.20
2023-04-04T13:28:22.507Z,2.72
2023-04-04T13:33:25.529Z,1.75
2023-04-04T13:38:28.894Z,2.13
2023-04-04T13:43:33.025Z,2.10
2023-04-04T13:48:35.766Z,2.20
2023-04-04T13:53:38.546Z,2.10
2023-04-04T13:58:43.099Z,2.10
2023-04-04T14:03:46.093Z,1.70
2023-04-04T14:08:48.877Z,2.10
2023-04-04T14:13:53.136Z,2.25
2023-04-04T14:18:56.149Z,2.05
2023-04-04T14:23:58.975Z,2.20
2023-04-04T14:29:03.395Z,2.33
2023-04-04T14:34:06.750Z,2.90
2023-04-04T14:39:09.567Z,2.25
2023-04-04T14:44:14.193Z,2.05
2023-04-04T14:49:16.926Z,2.00
2023-04-04T14:54:19.728Z,2.03
2023-04-04T14:59:23.986Z,2.35
2023-04-04T15:04:27.201Z,2.30
2023-04-04T15:09:30.776Z,2.22
2023-04-04T15:14:35.036Z,2.47
2023-04-04T15:19:37.839Z,2.22
2023-04-04T15:24:40.892Z,1.80
2023-04-04T15:29:45.034Z,1.95
2023-04-04T15:34:47.807Z,2.05
2023-04-04T15:39:53.410Z,1.80
2023-04-04T15:44:59.345Z,1.90
2023-04-04T15:50:02.097Z,1.73
2023-04-04T15:55:07.448Z,2.20
2023-04-04T16:00:13.211Z,2.30
2023-04-04T16:05:16.022Z,1.95
2023-04-04T16:10:18.786Z,2.35
2023-04-04T16:15:22.988Z,2.10
2023-04-04T16:20:26.544Z,2.50
2023-04-04T16:25:29.662Z,2.47
2023-04-04T16:30:33.946Z,2.30
2023-04-04T16:35:37.361Z,2.13
2023-04-04T16:40:40.386Z,2.50
2023-04-04T16:45:44.745Z,2.63
2023-04-04T16:50:47.484Z,3.15
2023-04-04T17:00:54.266Z,3.00
2023-04-04T17:05:59.828Z,2.78
2023-04-04T17:11:02.729Z,3.50
2023-04-04T17:16:07.373Z,3.30
2023-04-04T17:21:10.281Z,3.28
2023-04-04T17:26:13.306Z,2.92
2023-04-04T17:31:18.385Z,3.50
2023-04-04T17:36:21.306Z,3.03
2023-04-04T17:41:24.306Z,2.63
2023-04-04T17:46:28.592Z,3.10
2023-04-04T17:51:31.950Z,3.20
2023-04-04T17:56:34.678Z,2.70
2023-04-04T18:01:40.205Z,2.65
2023-04-04T18:06:43.398Z,3.40
2023-04-04T18:11:46.308Z,3.60
2023-04-04T18:16:50.402Z,3.75
2023-04-04T18:21:54.313Z,2.95
2023-04-04T18:26:57.858Z,2.47
2023-04-04T18:32:02.766Z,2.90
2023-04-04T18:37:06.266Z,2.72
2023-04-04T18:42:10.530Z,4.60
2023-04-04T18:47:14.698Z,3.95
2023-04-04T18:52:17.505Z,3.53
2023-04-04T18:57:20.603Z,4.00
2023-04-04T19:02:24.809Z,5.18
2023-04-04T19:07:29.050Z,6.18
2023-04-04T19:12:31.924Z,5.03
2023-04-04T19:17:36.147Z,5.65
2023-04-04T19:22:39.023Z,7.10
2023-04-04T19:27:41.822Z,4.78
2023-04-04T19:32:45.951Z,4.97
2023-04-04T19:37:48.827Z,6.93
2023-04-04T19:42:51.611Z,5.82
2023-04-04T19:47:56.040Z,6.25
2023-04-04T19:52:58.954Z,4.72
2023-04-04T19:58:02.544Z,4.10
2023-04-04T20:03:08.852Z,4.43
2023-04-04T20:08:11.652Z,3.85
2023-04-04T20:13:14.941Z,4.03
2023-04-04T20:18:24.057Z,5.22
2023-04-04T20:23:27.314Z,4.85
2023-04-04T20:28:30.291Z,5.18
2023-04-04T20:33:36.700Z,4.88
2023-04-04T20:38:41.660Z,4.88
2023-04-04T20:43:51.541Z,3.47
2023-04-04T20:48:56.839Z,3.20
2023-04-04T20:54:01.761Z,3.10
2023-04-04T20:59:07.357Z,3.35
2023-04-04T21:04:25.050Z,3.80
2023-04-04T21:09:28.840Z,3.95
2023-04-04T21:14:37.275Z,4.30
2023-04-04T21:19:41.410Z,3.88
2023-04-04T21:24:44.176Z,4.25
2023-04-04T21:29:47.019Z,4.32
2023-04-04T21:34:51.125Z,5.13
2023-04-04T21:39:59.862Z,4.57
2023-04-04T21:45:02.579Z,4.70
2023-04-04T21:50:08.253Z,4.63
2023-04-04T21:55:11.158Z,4.85
2023-04-04T22:00:15.258Z,4.30
2023-04-04T22:05:21.632Z,4.60
2023-04-04T22:10:27.495Z,4.40
2023-04-04T22:15:30.342Z,5.40
2023-04-04T22:20:34.570Z,3.65
2023-04-04T22:25:37.441Z,4.80
2023-04-04T22:30:42.209Z,4.75
2023-04-04T22:35:46.776Z,4.80
2023-04-04T22:40:49.602Z,4.80
2023-04-04T22:45:53.649Z,4.85
2023-04-04T22:50:58.671Z,4.35
2023-04-04T22:56:01.623Z,4.40
2023-04-04T23:01:04.638Z,4.18
2023-04-04T23:06:08.900Z,4.50
2023-04-04T23:11:11.678Z,4.55
2023-04-04T23:16:14.811Z,5.05
2023-04-04T23:21:18.998Z,5.07
2023-04-04T23:26:21.805Z,6.00
2023-04-04T23:31:25.686Z,6.15
2023-04-04T23:36:30.054Z,5.80
2023-04-04T23:41:33.251Z,5.78
2023-04-04T23:46:36.250Z,5.60
2023-04-04T23:51:40.410Z,5.57
2023-04-04T23:56:43.207Z,4.53
